sensor_id;sensor_type;location;lat;lon;timestamp;P1;durP1;ratioP1;P2;durP2;ratioP2
38581;SDS011;24349;53.720;10.014;2023-09-12T00:00:57;23.15;;;19.63;;
38581;SDS011;24349;53.720;10.014;2023-09-12T00:03:30;23.70;;;20.10;;
38581;SDS011;24349;53.720;10.014;2023-09-12T00:05:56;28.92;;;23.60;;
38581;SDS011;24349;53.720;10.014;2023-09-12T00:08:23;28.90;;;24.77;;
38581;SDS011;24349;53.720;10.014;2023-09-12T00:11:05;29.95;;;24.10;;
38581;SDS011;24349;53.720;10.014;2023-09-12T00:13:35;28.98;;;25.02;;
38581;SDS011;24349;53.720;10.014;2023-09-12T00:16:00;27.70;;;23.58;;
38581;SDS011;24349;53.720;10.014;2023-09-12T00:18:26;35.85;;;28.90;;
38581;SDS011;24349;53.720;10.014;2023-09-12T00:20:52;41.35;;;32.78;;
38581;SDS011;24349;53.720;10.014;2023-09-12T00:23:18;31.02;;;27.05;;
38581;SDS011;24349;53.720;10.014;2023-09-12T00:25:45;28.13;;;22.85;;
38581;SDS011;24349;53.720;10.014;2023-09-12T00:28:11;33.00;;;26.73;;
38581;SDS011;24349;53.720;10.014;2023-09-12T00:30:36;28.95;;;25.02;;
38581;SDS011;24349;53.720;10.014;2023-09-12T00:33:02;31.73;;;24.63;;
38581;SDS011;24349;53.720;10.014;2023-09-12T00:35:28;39.53;;;29.98;;
38581;SDS011;24349;53.720;10.014;2023-09-12T00:37:53;29.95;;;24.73;;
38581;SDS011;24349;53.720;10.014;2023-09-12T00:40:19;31.42;;;25.63;;
38581;SDS011;24349;53.720;10.014;2023-09-12T00:42:44;33.97;;;27.38;;
38581;SDS011;24349;53.720;10.014;2023-09-12T00:45:10;31.55;;;24.15;;
38581;SDS011;24349;53.720;10.014;2023-09-12T00:47:36;37.20;;;28.25;;
38581;SDS011;24349;53.720;10.014;2023-09-12T00:50:02;32.35;;;25.40;;
38581;SDS011;24349;53.720;10.014;2023-09-12T00:52:29;31.75;;;26.00;;
38581;SDS011;24349;53.720;10.014;2023-09-12T00:54:57;33.40;;;24.10;;
38581;SDS011;24349;53.720;10.014;2023-09-12T00:57:22;43.42;;;33.38;;
38581;SDS011;24349;53.720;10.014;2023-09-12T00:59:49;30.75;;;24.77;;
38581;SDS011;24349;53.720;10.014;2023-09-12T01:02:17;34.40;;;27.25;;
38581;SDS011;24349;53.720;10.014;2023-09-12T01:04:44;31.70;;;27.33;;
38581;SDS011;24349;53.720;10.014;2023-09-12T01:07:10;40.15;;;31.52;;
38581;SDS011;24349;53.720;10.014;2023-09-12T01:09:36;32.45;;;26.63;;
38581;SDS011;24349;53.720;10.014;2023-09-12T01:12:02;38.05;;;30.52;;
38581;SDS011;24349;53.720;10.014;2023-09-12T01:14:28;34.20;;;26.23;;
38581;SDS011;24349;53.720;10.014;2023-09-12T01:16:55;33.03;;;25.05;;
38581;SDS011;24349;53.720;10.014;2023-09-12T01:19:21;28.83;;;23.60;;
38581;SDS011;24349;53.720;10.014;2023-09-12T01:21:59;24.05;;;19.67;;
38581;SDS011;24349;53.720;10.014;2023-09-12T01:27:41;26.83;;;19.88;;
38581;SDS011;24349;53.720;10.014;2023-09-12T01:30:08;34.78;;;26.98;;
38581;SDS011;24349;53.720;10.014;2023-09-12T01:32:35;34.45;;;26.10;;
38581;SDS011;24349;53.720;10.014;2023-09-12T01:35:01;26.80;;;22.42;;
38581;SDS011;24349;53.720;10.014;2023-09-12T01:37:30;25.30;;;19.90;;
38581;SDS011;24349;53.720;10.014;2023-09-12T01:39:56;28.08;;;23.42;;
38581;SDS011;24349;53.720;10.014;2023-09-12T01:42:22;31.92;;;25.40;;
38581;SDS011;24349;53.720;10.014;2023-09-12T01:44:54;27.02;;;22.83;;
38581;SDS011;24349;53.720;10.014;2023-09-12T01:49:48;36.78;;;26.80;;
38581;SDS011;24349;53.720;10.014;2023-09-12T01:52:17;47.78;;;33.42;;
38581;SDS011;24349;53.720;10.014;2023-09-12T01:54:44;38.72;;;29.73;;
38581;SDS011;24349;53.720;10.014;2023-09-12T01:57:12;28.05;;;22.00;;
38581;SDS011;24349;53.720;10.014;2023-09-12T01:59:38;31.10;;;24.58;;
38581;SDS011;24349;53.720;10.014;2023-09-12T02:02:04;29.40;;;22.00;;
38581;SDS011;24349;53.720;10.014;2023-09-12T02:04:30;25.35;;;22.50;;
38581;SDS011;24349;53.720;10.014;2023-09-12T02:06:55;27.60;;;22.05;;
38581;SDS011;24349;53.720;10.014;2023-09-12T02:09:23;28.77;;;22.58;;
38581;SDS011;24349;53.720;10.014;2023-09-12T02:11:48;29.38;;;23.63;;
38581;SDS011;24349;53.720;10.014;2023-09-12T02:14:15;32.72;;;24.58;;
38581;SDS011;24349;53.720;10.014;2023-09-12T02:16:42;33.45;;;25.35;;
38581;SDS011;24349;53.720;10.014;2023-09-12T02:19:08;31.45;;;23.13;;
38581;SDS011;24349;53.720;10.014;2023-09-12T02:21:34;33.35;;;25.08;;
38581;SDS011;24349;53.720;10.014;2023-09-12T02:23:59;34.42;;;27.20;;
38581;SDS011;24349;53.720;10.014;2023-09-12T02:26:25;36.38;;;24.38;;
38581;SDS011;24349;53.720;10.014;2023-09-12T02:28:51;33.70;;;26.05;;
38581;SDS011;24349;53.720;10.014;2023-09-12T02:31:16;29.50;;;22.02;;
38581;SDS011;24349;53.720;10.014;2023-09-12T02:33:42;30.60;;;24.83;;
38581;SDS011;24349;53.720;10.014;2023-09-12T02:36:07;29.65;;;22.88;;
38581;SDS011;24349;53.720;10.014;2023-09-12T02:38:33;28.02;;;22.40;;
38581;SDS011;24349;53.720;10.014;2023-09-12T02:40:59;25.60;;;20.50;;
38581;SDS011;24349;53.720;10.014;2023-09-12T02:43:24;32.85;;;25.15;;
38581;SDS011;24349;53.720;10.014;2023-09-12T02:45:50;31.65;;;22.70;;
38581;SDS011;24349;53.720;10.014;2023-09-12T02:48:16;29.80;;;24.20;;
38581;SDS011;24349;53.720;10.014;2023-09-12T02:50:41;31.17;;;22.83;;
38581;SDS011;24349;53.720;10.014;2023-09-12T02:53:07;27.05;;;21.42;;
38581;SDS011;24349;53.720;10.014;2023-09-12T02:55:32;30.25;;;22.98;;
38581;SDS011;24349;53.720;10.014;2023-09-12T02:57:58;24.27;;;21.25;;
38581;SDS011;24349;53.720;10.014;2023-09-12T03:00:24;29.50;;;21.73;;
38581;SDS011;24349;53.720;10.014;2023-09-12T03:02:49;26.98;;;21.52;;
38581;SDS011;24349;53.720;10.014;2023-09-12T03:05:15;29.10;;;22.55;;
38581;SDS011;24349;53.720;10.014;2023-09-12T03:07:41;30.75;;;21.83;;
38581;SDS011;24349;53.720;10.014;2023-09-12T03:10:06;32.90;;;24.48;;
38581;SDS011;24349;53.720;10.014;2023-09-12T03:12:32;37.78;;;25.35;;
38581;SDS011;24349;53.720;10.014;2023-09-12T03:15:00;33.70;;;24.63;;
38581;SDS011;24349;53.720;10.014;2023-09-12T03:17:27;31.88;;;25.83;;
38581;SDS011;24349;53.720;10.014;2023-09-12T03:19:53;35.10;;;26.75;;
38581;SDS011;24349;53.720;10.014;2023-09-12T03:22:19;36.05;;;24.63;;
38581;SDS011;24349;53.720;10.014;2023-09-12T03:24:44;32.70;;;24.70;;
38581;SDS011;24349;53.720;10.014;2023-09-12T03:27:10;34.38;;;24.95;;
38581;SDS011;24349;53.720;10.014;2023-09-12T03:29:36;36.25;;;26.77;;
38581;SDS011;24349;53.720;10.014;2023-09-12T03:32:01;37.90;;;29.17;;
38581;SDS011;24349;53.720;10.014;2023-09-12T03:34:27;34.75;;;26.30;;
38581;SDS011;24349;53.720;10.014;2023-09-12T03:36:52;29.77;;;22.98;;
38581;SDS011;24349;53.720;10.014;2023-09-12T03:39:18;28.92;;;22.23;;
38581;SDS011;24349;53.720;10.014;2023-09-12T03:41:44;32.78;;;23.60;;
38581;SDS011;24349;53.720;10.014;2023-09-12T03:44:09;27.60;;;22.92;;
38581;SDS011;24349;53.720;10.014;2023-09-12T03:46:35;37.35;;;27.95;;
38581;SDS011;24349;53.720;10.014;2023-09-12T03:49:00;37.25;;;26.88;;
38581;SDS011;24349;53.720;10.014;2023-09-12T03:51:26;37.25;;;26.27;;
38581;SDS011;24349;53.720;10.014;2023-09-12T03:53:52;37.55;;;28.63;;
38581;SDS011;24349;53.720;10.014;2023-09-12T03:56:17;35.10;;;23.38;;
38581;SDS011;24349;53.720;10.014;2023-09-12T03:58:44;32.15;;;24.55;;
38581;SDS011;24349;53.720;10.014;2023-09-12T04:01:10;39.47;;;30.23;;
38581;SDS011;24349;53.720;10.014;2023-09-12T04:03:36;37.90;;;27.95;;
38581;SDS011;24349;53.720;10.014;2023-09-12T04:06:02;42.05;;;29.67;;
38581;SDS011;24349;53.720;10.014;2023-09-12T04:08:27;32.22;;;23.83;;
38581;SDS011;24349;53.720;10.014;2023-09-12T04:10:53;36.92;;;25.65;;
38581;SDS011;24349;53.720;10.014;2023-09-12T04:13:18;37.92;;;26.83;;
38581;SDS011;24349;53.720;10.014;2023-09-12T04:15:44;54.97;;;35.03;;
38581;SDS011;24349;53.720;10.014;2023-09-12T04:18:10;48.90;;;31.48;;
38581;SDS011;24349;53.720;10.014;2023-09-12T04:20:35;33.28;;;25.90;;
38581;SDS011;24349;53.720;10.014;2023-09-12T04:23:01;38.55;;;26.05;;
38581;SDS011;24349;53.720;10.014;2023-09-12T04:25:28;35.65;;;26.27;;
38581;SDS011;24349;53.720;10.014;2023-09-12T04:27:54;42.13;;;27.90;;
38581;SDS011;24349;53.720;10.014;2023-09-12T04:30:19;31.50;;;22.65;;
38581;SDS011;24349;53.720;10.014;2023-09-12T04:32:45;29.65;;;22.92;;
38581;SDS011;24349;53.720;10.014;2023-09-12T04:35:11;29.75;;;22.58;;
38581;SDS011;24349;53.720;10.014;2023-09-12T04:37:37;27.33;;;21.35;;
38581;SDS011;24349;53.720;10.014;2023-09-12T04:40:02;30.35;;;22.65;;
38581;SDS011;24349;53.720;10.014;2023-09-12T04:42:30;41.30;;;28.88;;
38581;SDS011;24349;53.720;10.014;2023-09-12T04:44:56;38.13;;;28.65;;
38581;SDS011;24349;53.720;10.014;2023-09-12T04:47:22;39.25;;;28.58;;
38581;SDS011;24349;53.720;10.014;2023-09-12T04:49:48;35.95;;;26.50;;
38581;SDS011;24349;53.720;10.014;2023-09-12T04:52:14;53.95;;;34.05;;
38581;SDS011;24349;53.720;10.014;2023-09-12T04:54:39;71.05;;;38.28;;
38581;SDS011;24349;53.720;10.014;2023-09-12T04:57:05;35.28;;;27.25;;
38581;SDS011;24349;53.720;10.014;2023-09-12T04:59:31;46.03;;;33.58;;
38581;SDS011;24349;53.720;10.014;2023-09-12T05:01:56;48.15;;;36.70;;
38581;SDS011;24349;53.720;10.014;2023-09-12T05:04:22;45.58;;;35.60;;
38581;SDS011;24349;53.720;10.014;2023-09-12T05:06:47;46.47;;;31.33;;
38581;SDS011;24349;53.720;10.014;2023-09-12T05:09:13;40.00;;;28.83;;
38581;SDS011;24349;53.720;10.014;2023-09-12T05:11:39;53.25;;;34.13;;
38581;SDS011;24349;53.720;10.014;2023-09-12T05:14:05;67.28;;;39.55;;
38581;SDS011;24349;53.720;10.014;2023-09-12T05:16:30;38.40;;;30.48;;
38581;SDS011;24349;53.720;10.014;2023-09-12T05:18:56;39.65;;;30.52;;
38581;SDS011;24349;53.720;10.014;2023-09-12T05:21:22;50.38;;;35.35;;
38581;SDS011;24349;53.720;10.014;2023-09-12T05:23:47;43.47;;;31.88;;
38581;SDS011;24349;53.720;10.014;2023-09-12T05:26:13;41.72;;;32.42;;
38581;SDS011;24349;53.720;10.014;2023-09-12T05:28:38;72.30;;;41.00;;
38581;SDS011;24349;53.720;10.014;2023-09-12T05:31:04;52.17;;;33.97;;
38581;SDS011;24349;53.720;10.014;2023-09-12T05:33:30;51.38;;;33.95;;
38581;SDS011;24349;53.720;10.014;2023-09-12T05:35:56;55.20;;;36.38;;
38581;SDS011;24349;53.720;10.014;2023-09-12T05:38:21;67.82;;;39.92;;
38581;SDS011;24349;53.720;10.014;2023-09-12T05:40:48;60.42;;;36.83;;
38581;SDS011;24349;53.720;10.014;2023-09-12T05:43:15;55.80;;;37.72;;
38581;SDS011;24349;53.720;10.014;2023-09-12T05:45:41;77.70;;;41.25;;
38581;SDS011;24349;53.720;10.014;2023-09-12T05:48:07;52.75;;;36.55;;
38581;SDS011;24349;53.720;10.014;2023-09-12T05:50:34;43.88;;;32.42;;
38581;SDS011;24349;53.720;10.014;2023-09-12T05:53:01;54.17;;;34.00;;
38581;SDS011;24349;53.720;10.014;2023-09-12T05:55:27;57.33;;;37.17;;
38581;SDS011;24349;53.720;10.014;2023-09-12T05:57:52;107.75;;;48.38;;
38581;SDS011;24349;53.720;10.014;2023-09-12T06:00:18;74.43;;;44.13;;
38581;SDS011;24349;53.720;10.014;2023-09-12T06:02:45;50.33;;;35.38;;
38581;SDS011;24349;53.720;10.014;2023-09-12T06:05:14;45.05;;;32.10;;
38581;SDS011;24349;53.720;10.014;2023-09-12T06:07:41;39.05;;;29.45;;
38581;SDS011;24349;53.720;10.014;2023-09-12T06:10:07;54.72;;;35.42;;
38581;SDS011;24349;53.720;10.014;2023-09-12T06:12:33;43.80;;;30.88;;
38581;SDS011;24349;53.720;10.014;2023-09-12T06:15:01;39.17;;;29.20;;
38581;SDS011;24349;53.720;10.014;2023-09-12T06:17:27;47.10;;;32.92;;
38581;SDS011;24349;53.720;10.014;2023-09-12T06:19:54;51.42;;;34.60;;
38581;SDS011;24349;53.720;10.014;2023-09-12T06:22:19;70.75;;;42.38;;
38581;SDS011;24349;53.720;10.014;2023-09-12T06:24:45;48.45;;;33.42;;
38581;SDS011;24349;53.720;10.014;2023-09-12T06:27:11;51.40;;;33.67;;
38581;SDS011;24349;53.720;10.014;2023-09-12T06:29:44;40.47;;;30.92;;
38581;SDS011;24349;53.720;10.014;2023-09-12T06:32:10;38.17;;;30.05;;
38581;SDS011;24349;53.720;10.014;2023-09-12T06:34:36;45.63;;;33.55;;
38581;SDS011;24349;53.720;10.014;2023-09-12T06:37:01;52.33;;;37.38;;
38581;SDS011;24349;53.720;10.014;2023-09-12T06:39:27;53.22;;;34.65;;
38581;SDS011;24349;53.720;10.014;2023-09-12T06:41:53;54.40;;;38.50;;
38581;SDS011;24349;53.720;10.014;2023-09-12T06:44:18;55.10;;;36.17;;
38581;SDS011;24349;53.720;10.014;2023-09-12T06:46:44;54.88;;;36.50;;
38581;SDS011;24349;53.720;10.014;2023-09-12T06:49:09;50.92;;;34.50;;
38581;SDS011;24349;53.720;10.014;2023-09-12T06:51:35;58.58;;;37.67;;
38581;SDS011;24349;53.720;10.014;2023-09-12T06:54:00;74.88;;;39.45;;
38581;SDS011;24349;53.720;10.014;2023-09-12T06:56:26;54.70;;;34.63;;
38581;SDS011;24349;53.720;10.014;2023-09-12T06:58:52;56.58;;;40.25;;
38581;SDS011;24349;53.720;10.014;2023-09-12T07:01:20;45.28;;;32.40;;
38581;SDS011;24349;53.720;10.014;2023-09-12T07:03:46;51.22;;;33.50;;
38581;SDS011;24349;53.720;10.014;2023-09-12T07:06:11;59.03;;;37.38;;
38581;SDS011;24349;53.720;10.014;2023-09-12T07:08:37;57.28;;;37.05;;
38581;SDS011;24349;53.720;10.014;2023-09-12T07:11:03;44.67;;;31.38;;
38581;SDS011;24349;53.720;10.014;2023-09-12T07:13:32;50.80;;;33.63;;
38581;SDS011;24349;53.720;10.014;2023-09-12T07:15:58;64.07;;;38.15;;
38581;SDS011;24349;53.720;10.014;2023-09-12T07:18:24;78.95;;;43.95;;
38581;SDS011;24349;53.720;10.014;2023-09-12T07:20:59;55.85;;;34.85;;
38581;SDS011;24349;53.720;10.014;2023-09-12T07:23:26;49.38;;;34.60;;
38581;SDS011;24349;53.720;10.014;2023-09-12T07:25:53;60.83;;;38.67;;
38581;SDS011;24349;53.720;10.014;2023-09-12T07:28:22;53.50;;;34.25;;
38581;SDS011;24349;53.720;10.014;2023-09-12T07:30:51;52.30;;;35.10;;
38581;SDS011;24349;53.720;10.014;2023-09-12T07:33:16;45.28;;;33.17;;
38581;SDS011;24349;53.720;10.014;2023-09-12T07:35:42;42.42;;;30.73;;
38581;SDS011;24349;53.720;10.014;2023-09-12T07:38:08;46.80;;;33.15;;
38581;SDS011;24349;53.720;10.014;2023-09-12T07:40:33;46.63;;;33.10;;
38581;SDS011;24349;53.720;10.014;2023-09-12T07:42:59;46.22;;;31.20;;
38581;SDS011;24349;53.720;10.014;2023-09-12T07:45:24;55.88;;;37.00;;
38581;SDS011;24349;53.720;10.014;2023-09-12T07:47:50;48.92;;;33.38;;
38581;SDS011;24349;53.720;10.014;2023-09-12T07:50:16;38.90;;;28.52;;
38581;SDS011;24349;53.720;10.014;2023-09-12T07:52:41;41.38;;;29.23;;
38581;SDS011;24349;53.720;10.014;2023-09-12T07:55:07;34.97;;;26.15;;
38581;SDS011;24349;53.720;10.014;2023-09-12T07:57:33;43.88;;;31.30;;
38581;SDS011;24349;53.720;10.014;2023-09-12T07:59:59;39.85;;;29.50;;
38581;SDS011;24349;53.720;10.014;2023-09-12T08:02:26;49.22;;;34.15;;
38581;SDS011;24349;53.720;10.014;2023-09-12T08:04:51;41.67;;;29.75;;
38581;SDS011;24349;53.720;10.014;2023-09-12T08:07:18;40.42;;;29.90;;
38581;SDS011;24349;53.720;10.014;2023-09-12T08:10:03;45.83;;;31.55;;
38581;SDS011;24349;53.720;10.014;2023-09-12T08:12:29;43.63;;;31.83;;
38581;SDS011;24349;53.720;10.014;2023-09-12T08:14:54;43.58;;;32.63;;
38581;SDS011;24349;53.720;10.014;2023-09-12T08:17:21;39.95;;;29.90;;
38581;SDS011;24349;53.720;10.014;2023-09-12T08:19:47;38.85;;;30.05;;
38581;SDS011;24349;53.720;10.014;2023-09-12T08:22:13;42.85;;;32.05;;
38581;SDS011;24349;53.720;10.014;2023-09-12T08:24:39;33.45;;;28.02;;
38581;SDS011;24349;53.720;10.014;2023-09-12T08:27:05;32.15;;;25.88;;
38581;SDS011;24349;53.720;10.014;2023-09-12T08:29:31;31.85;;;25.65;;
38581;SDS011;24349;53.720;10.014;2023-09-12T08:31:58;35.05;;;27.58;;
38581;SDS011;24349;53.720;10.014;2023-09-12T08:34:24;35.13;;;28.08;;
38581;SDS011;24349;53.720;10.014;2023-09-12T08:36:50;30.98;;;25.58;;
38581;SDS011;24349;53.720;10.014;2023-09-12T08:39:18;32.90;;;27.65;;
38581;SDS011;24349;53.720;10.014;2023-09-12T08:41:49;34.50;;;26.67;;
38581;SDS011;24349;53.720;10.014;2023-09-12T08:44:15;30.00;;;25.58;;
38581;SDS011;24349;53.720;10.014;2023-09-12T08:46:41;26.77;;;22.67;;
38581;SDS011;24349;53.720;10.014;2023-09-12T08:49:07;27.50;;;22.92;;
38581;SDS011;24349;53.720;10.014;2023-09-12T08:51:34;22.35;;;19.73;;
38581;SDS011;24349;53.720;10.014;2023-09-12T08:54:01;26.50;;;20.58;;
38581;SDS011;24349;53.720;10.014;2023-09-12T08:56:29;23.67;;;20.95;;
38581;SDS011;24349;53.720;10.014;2023-09-12T08:58:57;25.17;;;21.35;;
38581;SDS011;24349;53.720;10.014;2023-09-12T09:01:25;22.58;;;19.38;;
38581;SDS011;24349;53.720;10.014;2023-09-12T09:03:54;33.75;;;30.60;;
38581;SDS011;24349;53.720;10.014;2023-09-12T09:06:21;25.92;;;21.10;;
38581;SDS011;24349;53.720;10.014;2023-09-12T09:08:47;23.73;;;20.50;;
38581;SDS011;24349;53.720;10.014;2023-09-12T09:11:14;22.65;;;19.58;;
38581;SDS011;24349;53.720;10.014;2023-09-12T09:13:39;22.38;;;19.98;;
38581;SDS011;24349;53.720;10.014;2023-09-12T09:16:09;20.42;;;17.35;;
38581;SDS011;24349;53.720;10.014;2023-09-12T09:21:22;21.65;;;19.35;;
38581;SDS011;24349;53.720;10.014;2023-09-12T09:23:52;30.80;;;27.98;;
38581;SDS011;24349;53.720;10.014;2023-09-12T09:26:19;14.82;;;12.98;;
38581;SDS011;24349;53.720;10.014;2023-09-12T09:28:45;21.98;;;19.23;;
38581;SDS011;24349;53.720;10.014;2023-09-12T09:31:25;20.30;;;17.95;;
38581;SDS011;24349;53.720;10.014;2023-09-12T09:33:50;21.13;;;18.70;;
38581;SDS011;24349;53.720;10.014;2023-09-12T09:36:17;19.00;;;16.20;;
38581;SDS011;24349;53.720;10.014;2023-09-12T09:38:42;14.43;;;12.38;;
38581;SDS011;24349;53.720;10.014;2023-09-12T09:41:08;15.70;;;12.98;;
38581;SDS011;24349;53.720;10.014;2023-09-12T09:43:34;14.50;;;13.00;;
38581;SDS011;24349;53.720;10.014;2023-09-12T09:46:00;13.45;;;12.15;;
38581;SDS011;24349;53.720;10.014;2023-09-12T09:48:27;12.32;;;10.98;;
38581;SDS011;24349;53.720;10.014;2023-09-12T09:51:00;12.30;;;11.00;;
38581;SDS011;24349;53.720;10.014;2023-09-12T09:53:27;12.27;;;10.98;;
38581;SDS011;24349;53.720;10.014;2023-09-12T09:56:10;14.50;;;11.68;;
38581;SDS011;24349;53.720;10.014;2023-09-12T09:58:48;13.20;;;11.40;;
38581;SDS011;24349;53.720;10.014;2023-09-12T10:01:27;12.82;;;10.27;;
38581;SDS011;24349;53.720;10.014;2023-09-12T10:03:58;12.95;;;10.82;;
38581;SDS011;24349;53.720;10.014;2023-09-12T10:06:25;16.50;;;13.90;;
38581;SDS011;24349;53.720;10.014;2023-09-12T10:08:52;14.73;;;13.10;;
38581;SDS011;24349;53.720;10.014;2023-09-12T10:11:18;13.88;;;11.65;;
38581;SDS011;24349;53.720;10.014;2023-09-12T10:13:54;15.63;;;13.38;;
38581;SDS011;24349;53.720;10.014;2023-09-12T10:16:24;16.58;;;13.85;;
38581;SDS011;24349;53.720;10.014;2023-09-12T10:24:31;17.05;;;12.57;;
38581;SDS011;24349;53.720;10.014;2023-09-12T10:26:59;14.93;;;12.73;;
38581;SDS011;24349;53.720;10.014;2023-09-12T10:29:26;12.60;;;11.23;;
38581;SDS011;24349;53.720;10.014;2023-09-12T10:31:52;14.13;;;11.02;;
38581;SDS011;24349;53.720;10.014;2023-09-12T10:34:18;26.15;;;24.00;;
38581;SDS011;24349;53.720;10.014;2023-09-12T10:36:45;12.60;;;10.15;;
38581;SDS011;24349;53.720;10.014;2023-09-12T10:39:13;43.47;;;40.30;;
38581;SDS011;24349;53.720;10.014;2023-09-12T10:41:40;16.38;;;13.68;;
38581;SDS011;24349;53.720;10.014;2023-09-12T10:44:08;14.20;;;12.70;;
38581;SDS011;24349;53.720;10.014;2023-09-12T10:46:38;15.70;;;14.10;;
38581;SDS011;24349;53.720;10.014;2023-09-12T10:49:09;16.25;;;13.68;;
38581;SDS011;24349;53.720;10.014;2023-09-12T10:51:46;14.53;;;12.27;;
38581;SDS011;24349;53.720;10.014;2023-09-12T10:54:13;10.70;;;9.55;;
38581;SDS011;24349;53.720;10.014;2023-09-12T10:56:40;15.88;;;10.75;;
38581;SDS011;24349;53.720;10.014;2023-09-12T11:01:42;14.40;;;9.68;;
38581;SDS011;24349;53.720;10.014;2023-09-12T11:06:43;13.30;;;11.85;;
38581;SDS011;24349;53.720;10.014;2023-09-12T11:09:22;14.18;;;12.68;;
38581;SDS011;24349;53.720;10.014;2023-09-12T11:11:53;11.77;;;9.70;;
38581;SDS011;24349;53.720;10.014;2023-09-12T11:14:20;12.48;;;10.95;;
38581;SDS011;24349;53.720;10.014;2023-09-12T11:19:52;14.77;;;11.70;;
38581;SDS011;24349;53.720;10.014;2023-09-12T11:24:47;17.92;;;16.20;;
38581;SDS011;24349;53.720;10.014;2023-09-12T11:27:13;14.70;;;12.20;;
38581;SDS011;24349;53.720;10.014;2023-09-12T11:29:39;15.40;;;12.45;;
38581;SDS011;24349;53.720;10.014;2023-09-12T11:32:05;14.27;;;12.25;;
38581;SDS011;24349;53.720;10.014;2023-09-12T11:34:40;12.95;;;11.38;;
38581;SDS011;24349;53.720;10.014;2023-09-12T11:37:07;12.38;;;11.07;;
38581;SDS011;24349;53.720;10.014;2023-09-12T11:39:34;14.15;;;12.75;;
38581;SDS011;24349;53.720;10.014;2023-09-12T11:42:01;13.10;;;11.63;;
38581;SDS011;24349;53.720;10.014;2023-09-12T11:44:29;17.35;;;14.52;;
38581;SDS011;24349;53.720;10.014;2023-09-12T11:46:56;17.48;;;12.60;;
38581;SDS011;24349;53.720;10.014;2023-09-12T11:49:35;17.70;;;15.95;;
38581;SDS011;24349;53.720;10.014;2023-09-12T11:52:02;13.30;;;11.90;;
38581;SDS011;24349;53.720;10.014;2023-09-12T11:54:29;17.38;;;14.93;;
38581;SDS011;24349;53.720;10.014;2023-09-12T11:56:57;15.48;;;13.85;;
38581;SDS011;24349;53.720;10.014;2023-09-12T11:59:24;15.20;;;13.52;;
38581;SDS011;24349;53.720;10.014;2023-09-12T12:01:51;14.30;;;12.15;;
38581;SDS011;24349;53.720;10.014;2023-09-12T12:04:17;14.73;;;13.18;;
38581;SDS011;24349;53.720;10.014;2023-09-12T12:06:45;15.93;;;13.20;;
38581;SDS011;24349;53.720;10.014;2023-09-12T12:09:10;15.77;;;14.05;;
38581;SDS011;24349;53.720;10.014;2023-09-12T12:11:36;18.30;;;15.10;;
38581;SDS011;24349;53.720;10.014;2023-09-12T12:14:13;14.90;;;13.30;;
38581;SDS011;24349;53.720;10.014;2023-09-12T12:16:41;16.92;;;14.50;;
38581;SDS011;24349;53.720;10.014;2023-09-12T12:19:08;16.25;;;14.55;;
38581;SDS011;24349;53.720;10.014;2023-09-12T12:21:40;19.25;;;16.48;;
38581;SDS011;24349;53.720;10.014;2023-09-12T12:24:07;16.80;;;14.60;;
38581;SDS011;24349;53.720;10.014;2023-09-12T12:26:35;19.20;;;16.25;;
38581;SDS011;24349;53.720;10.014;2023-09-12T12:29:01;19.27;;;17.27;;
38581;SDS011;24349;53.720;10.014;2023-09-12T12:31:27;20.13;;;18.05;;
38581;SDS011;24349;53.720;10.014;2023-09-12T12:33:54;24.67;;;20.25;;
38581;SDS011;24349;53.720;10.014;2023-09-12T12:36:20;22.73;;;20.42;;
38581;SDS011;24349;53.720;10.014;2023-09-12T12:38:47;23.38;;;19.88;;
38581;SDS011;24349;53.720;10.014;2023-09-12T12:41:17;21.60;;;19.40;;
38581;SDS011;24349;53.720;10.014;2023-09-12T12:43:56;20.85;;;18.25;;
38581;SDS011;24349;53.720;10.014;2023-09-12T12:46:25;23.52;;;20.38;;
38581;SDS011;24349;53.720;10.014;2023-09-12T12:48:51;24.52;;;21.08;;
38581;SDS011;24349;53.720;10.014;2023-09-12T12:51:18;20.08;;;16.33;;
38581;SDS011;24349;53.720;10.014;2023-09-12T12:53:48;22.02;;;19.52;;
38581;SDS011;24349;53.720;10.014;2023-09-12T12:56:23;19.83;;;16.40;;
38581;SDS011;24349;53.720;10.014;2023-09-12T12:58:54;19.40;;;17.38;;
38581;SDS011;24349;53.720;10.014;2023-09-12T13:01:27;20.15;;;18.08;;
38581;SDS011;24349;53.720;10.014;2023-09-12T13:03:53;74.15;;;21.20;;
38581;SDS011;24349;53.720;10.014;2023-09-12T13:06:21;21.42;;;17.75;;
38581;SDS011;24349;53.720;10.014;2023-09-12T13:08:48;21.20;;;19.00;;
38581;SDS011;24349;53.720;10.014;2023-09-12T13:11:15;19.02;;;16.98;;
38581;SDS011;24349;53.720;10.014;2023-09-12T13:13:42;19.88;;;17.42;;
38581;SDS011;24349;53.720;10.014;2023-09-12T13:16:12;18.98;;;17.00;;
38581;SDS011;24349;53.720;10.014;2023-09-12T13:18:38;16.15;;;14.45;;
38581;SDS011;24349;53.720;10.014;2023-09-12T13:21:04;17.92;;;16.13;;
38581;SDS011;24349;53.720;10.014;2023-09-12T13:23:30;20.63;;;18.48;;
38581;SDS011;24349;53.720;10.014;2023-09-12T13:25:58;19.13;;;17.10;;
38581;SDS011;24349;53.720;10.014;2023-09-12T13:28:24;15.73;;;13.32;;
38581;SDS011;24349;53.720;10.014;2023-09-12T13:30:52;19.55;;;17.48;;
38581;SDS011;24349;53.720;10.014;2023-09-12T13:33:18;17.83;;;15.90;;
38581;SDS011;24349;53.720;10.014;2023-09-12T13:35:44;15.82;;;14.10;;
38581;SDS011;24349;53.720;10.014;2023-09-12T13:38:11;19.30;;;17.35;;
38581;SDS011;24349;53.720;10.014;2023-09-12T13:40:37;17.88;;;16.05;;
38581;SDS011;24349;53.720;10.014;2023-09-12T13:43:04;17.85;;;16.05;;
38581;SDS011;24349;53.720;10.014;2023-09-12T13:45:30;20.88;;;18.90;;
38581;SDS011;24349;53.720;10.014;2023-09-12T13:47:57;20.50;;;18.40;;
38581;SDS011;24349;53.720;10.014;2023-09-12T13:50:23;31.40;;;28.70;;
38581;SDS011;24349;53.720;10.014;2023-09-12T13:52:49;24.48;;;22.05;;
38581;SDS011;24349;53.720;10.014;2023-09-12T13:55:14;23.08;;;20.70;;
38581;SDS011;24349;53.720;10.014;2023-09-12T13:57:41;25.10;;;22.33;;
38581;SDS011;24349;53.720;10.014;2023-09-12T14:00:07;22.25;;;20.00;;
38581;SDS011;24349;53.720;10.014;2023-09-12T14:02:33;21.38;;;18.02;;
38581;SDS011;24349;53.720;10.014;2023-09-12T14:04:59;21.77;;;19.48;;
38581;SDS011;24349;53.720;10.014;2023-09-12T14:07:25;26.58;;;24.00;;
38581;SDS011;24349;53.720;10.014;2023-09-12T14:09:51;22.48;;;20.38;;
38581;SDS011;24349;53.720;10.014;2023-09-12T14:12:20;21.90;;;19.70;;
38581;SDS011;24349;53.720;10.014;2023-09-12T14:14:49;21.88;;;19.67;;
38581;SDS011;24349;53.720;10.014;2023-09-12T14:17:14;22.67;;;20.27;;
38581;SDS011;24349;53.720;10.014;2023-09-12T14:19:40;20.60;;;18.40;;
38581;SDS011;24349;53.720;10.014;2023-09-12T14:22:06;22.77;;;20.42;;
38581;SDS011;24349;53.720;10.014;2023-09-12T14:24:31;19.58;;;17.67;;
38581;SDS011;24349;53.720;10.014;2023-09-12T14:26:57;24.00;;;19.42;;
38581;SDS011;24349;53.720;10.014;2023-09-12T14:29:23;21.75;;;19.55;;
38581;SDS011;24349;53.720;10.014;2023-09-12T14:31:51;23.00;;;20.80;;